createdAt,value
2022-09-06T00:01:12.863Z,88.98
2022-09-06T00:03:40.815Z,89.01
2022-09-06T00:06:16.762Z,89.03
2022-09-06T00:08:47.164Z,88.72
2022-09-06T00:11:17.060Z,88.75
2022-09-06T00:13:45.909Z,89.06
2022-09-06T00:16:21.446Z,89.00
2022-09-06T00:18:53.315Z,89.22
2022-09-06T00:21:25.564Z,89.33
2022-09-06T00:23:54.144Z,89.24
2022-09-06T00:26:23.482Z,89.24
2022-09-06T00:28:51.228Z,89.25
2022-09-06T00:31:23.070Z,89.38
2022-09-06T00:33:51.445Z,89.49
2022-09-06T00:36:21.269Z,89.88
2022-09-06T00:38:49.015Z,89.36
2022-09-06T00:41:17.874Z,89.45
2022-09-06T00:43:46.206Z,89.41
2022-09-06T00:46:21.376Z,89.24
2022-09-06T00:48:56.454Z,88.99
2022-09-06T00:51:29.578Z,89.38
2022-09-06T00:53:58.448Z,89.39
2022-09-06T00:56:27.421Z,89.59
2022-09-06T00:58:55.664Z,89.47
2022-09-06T01:01:23.543Z,89.54
2022-09-06T01:03:51.693Z,89.97
2022-09-06T01:06:25.549Z,90.17
2022-09-06T01:09:39.275Z,90.07
2022-09-06T01:13:02.270Z,89.62
2022-09-06T01:15:54.943Z,89.37
2022-09-06T01:18:49.883Z,89.61
2022-09-06T01:21:26.445Z,90.24
2022-09-06T01:24:46.914Z,90.03
2022-09-06T01:27:20.407Z,89.75
2022-09-06T01:30:00.015Z,89.96
2022-09-06T01:33:03.993Z,89.89
2022-09-06T01:35:56.018Z,89.81
2022-09-06T01:38:23.899Z,89.78
2022-09-06T01:40:51.773Z,89.83
2022-09-06T01:43:30.405Z,89.91
2022-09-06T01:46:07.847Z,89.96
2022-09-06T01:49:15.662Z,89.80
2022-09-06T01:52:14.610Z,89.73
2022-09-06T01:55:05.327Z,89.78
2022-09-06T01:58:19.681Z,89.76
2022-09-06T02:01:21.210Z,89.81
2022-09-06T02:03:54.126Z,89.84
2022-09-06T02:06:29.739Z,90.16
2022-09-06T02:09:09.941Z,90.12
2022-09-06T02:11:45.689Z,90.00
2022-09-06T02:14:20.749Z,90.14
2022-09-06T02:16:53.437Z,89.99
2022-09-06T02:19:27.783Z,90.10
2022-09-06T02:21:59.067Z,90.18
2022-09-06T02:24:31.519Z,89.87
2022-09-06T02:26:59.461Z,89.96
2022-09-06T02:29:28.079Z,90.08
2022-09-06T02:32:21.901Z,90.23
2022-09-06T02:34:55.128Z,90.26
2022-09-06T02:37:27.138Z,90.05
2022-09-06T02:39:56.100Z,90.14
2022-09-06T02:42:25.383Z,90.24
2022-09-06T02:44:53.267Z,90.38
2022-09-06T02:47:20.920Z,90.33
2022-09-06T02:49:49.193Z,90.15
2022-09-06T02:52:17.479Z,89.99
2022-09-06T02:54:45.288Z,90.02
2022-09-06T02:57:13.001Z,89.94
2022-09-06T02:59:40.949Z,90.02
2022-09-06T03:02:08.817Z,90.06
2022-09-06T03:04:36.907Z,89.98
2022-09-06T03:07:04.855Z,89.90
2022-09-06T03:09:32.730Z,89.90
2022-09-06T03:12:00.447Z,89.87
2022-09-06T03:14:28.106Z,89.86
2022-09-06T03:16:56.123Z,90.09
2022-09-06T03:19:24.029Z,90.20
2022-09-06T03:21:51.907Z,90.03
2022-09-06T03:24:19.655Z,90.13
2022-09-06T03:26:47.318Z,90.18
2022-09-06T03:29:15.070Z,90.19
2022-09-06T03:31:42.890Z,89.93
2022-09-06T03:34:11.323Z,89.96
2022-09-06T03:36:39.107Z,90.25
2022-09-06T03:39:07.184Z,90.23
2022-09-06T03:41:35.315Z,90.28
2022-09-06T03:44:03.661Z,90.24
2022-09-06T03:46:31.309Z,90.13
2022-09-06T03:48:59.979Z,90.23
2022-09-06T03:51:27.787Z,90.42
2022-09-06T03:53:55.738Z,90.36
2022-09-06T03:56:23.442Z,90.48
2022-09-06T03:58:51.233Z,90.50
2022-09-06T04:01:19.037Z,90.43
2022-09-06T04:03:47.384Z,90.21
2022-09-06T04:06:15.191Z,90.45
2022-09-06T04:08:42.917Z,90.31
2022-09-06T04:11:10.778Z,90.38
2022-09-06T04:13:38.730Z,90.34
2022-09-06T04:16:06.826Z,90.36
2022-09-06T04:18:34.695Z,90.36
2022-09-06T04:21:02.839Z,90.32
2022-09-06T04:23:30.655Z,90.45
2022-09-06T04:25:59.459Z,90.01
2022-09-06T04:28:27.976Z,89.94
2022-09-06T04:31:03.992Z,90.01
2022-09-06T04:33:35.943Z,90.20
2022-09-06T04:36:08.183Z,90.26
2022-09-06T04:38:42.204Z,90.07
2022-09-06T04:41:13.910Z,90.13
2022-09-06T04:43:43.408Z,90.04
2022-09-06T04:46:30.158Z,90.12
2022-09-06T04:48:58.661Z,90.08
2022-09-06T04:51:29.693Z,89.93
2022-09-06T04:53:57.436Z,90.03
2022-09-06T04:56:26.797Z,90.01
2022-09-06T04:58:55.738Z,90.14
2022-09-06T05:01:26.244Z,90.21
2022-09-06T05:03:56.893Z,90.12
2022-09-06T05:06:25.862Z,90.18
2022-09-06T05:08:53.677Z,90.25
2022-09-06T05:11:21.504Z,90.29
2022-09-06T05:13:50.238Z,90.29
2022-09-06T05:16:18.366Z,90.22
2022-09-06T05:18:46.261Z,90.31
2022-09-06T05:21:14.300Z,90.53
2022-09-06T05:23:42.115Z,90.53
2022-09-06T05:26:09.826Z,90.43
2022-09-06T05:28:37.837Z,90.54
2022-09-06T05:31:25.139Z,90.51
2022-09-06T05:33:54.491Z,90.37
2022-09-06T05:36:23.548Z,90.23
2022-09-06T05:38:52.815Z,90.26
2022-09-06T05:41:21.887Z,90.31
2022-09-06T05:43:49.817Z,90.28
2022-09-06T05:46:18.616Z,90.37
2022-09-06T05:48:54.434Z,90.38
2022-09-06T05:51:22.378Z,90.40
2022-09-06T05:53:50.480Z,90.31
2022-09-06T05:56:19.063Z,90.40
2022-09-06T05:58:46.763Z,90.51
2022-09-06T06:01:27.300Z,90.58
2022-09-06T06:03:58.987Z,90.60
2022-09-06T06:06:33.071Z,90.52
2022-09-06T06:09:01.569Z,90.64
2022-09-06T06:11:31.375Z,90.65
2022-09-06T06:13:59.381Z,90.59
2022-09-06T06:16:27.181Z,90.61
2022-09-06T06:18:55.397Z,90.58
2022-09-06T06:21:27.087Z,90.70
2022-09-06T06:24:01.573Z,90.74
2022-09-06T06:26:33.946Z,90.75
2022-09-06T06:29:02.460Z,90.70
2022-09-06T06:31:33.151Z,90.72
2022-09-06T06:34:03.770Z,90.63
2022-09-06T06:36:34.893Z,90.64
2022-09-06T06:39:08.431Z,90.51
2022-09-06T06:41:36.446Z,90.44
2022-09-06T06:44:09.760Z,90.42
2022-09-06T06:46:39.080Z,90.44
2022-09-06T06:49:06.765Z,90.44
2022-09-06T06:51:39.338Z,90.21
2022-09-06T06:54:07.394Z,90.12
2022-09-06T06:56:40.738Z,90.16
2022-09-06T06:59:08.613Z,90.26
2022-09-06T07:01:37.329Z,90.20
2022-09-06T07:04:05.785Z,90.25
2022-09-06T07:12:27.214Z,90.15
2022-09-06T07:14:55.551Z,90.19
2022-09-06T07:17:23.355Z,90.13
2022-09-06T07:22:40.538Z,90.30
2022-09-06T07:25:15.288Z,89.99
2022-09-06T07:30:19.512Z,89.99
2022-09-06T07:32:47.911Z,89.83
2022-09-06T07:35:16.055Z,89.75
2022-09-06T07:37:43.817Z,89.74
2022-09-06T07:40:11.802Z,89.61
2022-09-06T07:42:39.880Z,89.51
2022-09-06T07:45:08.513Z,89.26
2022-09-06T07:53:15.512Z,88.75
2022-09-06T07:55:45.392Z,88.18
2022-09-06T07:58:14.219Z,88.09
2022-09-06T08:00:42.077Z,87.78
2022-09-06T08:03:10.310Z,87.92
2022-09-06T08:11:14.186Z,87.28
2022-09-06T08:13:42.449Z,87.39
2022-09-06T08:16:12.508Z,87.20
2022-09-06T08:18:40.347Z,87.09
2022-09-06T08:21:12.857Z,87.00
2022-09-06T08:23:48.953Z,87.05
2022-09-06T08:26:18.893Z,86.53
2022-09-06T08:28:47.383Z,86.66
2022-09-06T08:31:17.666Z,86.07
2022-09-06T08:33:47.618Z,86.56
2022-09-06T08:36:15.979Z,86.50
2022-09-06T08:38:43.853Z,86.23
2022-09-06T08:41:14.190Z,85.92
2022-09-06T08:47:10.934Z,86.38
2022-09-06T08:49:46.039Z,86.29
2022-09-06T08:52:35.274Z,85.96
2022-09-06T08:56:04.450Z,86.35
2022-09-06T08:59:02.659Z,86.10
2022-09-06T09:02:03.728Z,86.23
2022-09-06T09:04:34.938Z,86.15
2022-09-06T09:07:38.747Z,86.24
2022-09-06T09:10:18.992Z,86.09
2022-09-06T09:12:48.908Z,86.55
2022-09-06T09:15:20.533Z,86.57
2022-09-06T09:17:51.752Z,86.58
2022-09-06T09:20:21.343Z,85.98
2022-09-06T09:22:49.390Z,86.12
2022-09-06T09:25:24.511Z,86.21
2022-09-06T09:28:00.302Z,86.05
2022-09-06T09:30:53.084Z,86.19
2022-09-06T09:33:32.496Z,86.42
2022-09-06T09:36:07.452Z,86.27
2022-09-06T09:38:44.261Z,85.81
2022-09-06T09:41:30.181Z,85.09
2022-09-06T09:44:04.855Z,85.36
2022-09-06T09:46:36.410Z,85.26
2022-09-06T09:49:04.103Z,84.87
2022-09-06T09:51:44.492Z,85.14
2022-09-06T09:54:15.163Z,85.13
2022-09-06T09:56:49.801Z,84.64
2022-09-06T09:59:44.516Z,83.86
2022-09-06T10:02:39.073Z,84.37
2022-09-06T10:05:12.663Z,83.73
2022-09-06T10:07:57.294Z,83.19
2022-09-06T10:10:34.682Z,82.87
2022-09-06T10:13:22.168Z,82.58
2022-09-06T10:15:53.532Z,82.93
2022-09-06T10:18:21.122Z,82.13
2022-09-06T10:20:59.434Z,82.66
2022-09-06T10:26:51.752Z,82.67
2022-09-06T10:29:52.915Z,82.08
2022-09-06T10:32:47.864Z,82.00
2022-09-06T10:35:35.167Z,81.49
2022-09-06T10:38:43.399Z,81.26
2022-09-06T10:41:55.191Z,80.58
2022-09-06T10:44:41.427Z,80.98
2022-09-06T10:47:13.468Z,79.70
2022-09-06T10:49:47.138Z,79.52
2022-09-06T10:52:25.599Z,78.97
2022-09-06T10:55:02.129Z,78.55
2022-09-06T11:00:33.904Z,78.37
2022-09-06T11:06:12.804Z,78.74
2022-09-06T11:08:53.577Z,78.48
2022-09-06T11:11:49.356Z,79.12
2022-09-06T11:14:21.014Z,78.31
2022-09-06T11:16:59.196Z,78.24
2022-09-06T11:19:44.193Z,77.61
2022-09-06T11:22:38.710Z,77.22
2022-09-06T11:25:51.380Z,77.22
2022-09-06T11:28:35.374Z,76.49
2022-09-06T11:31:05.709Z,77.07
2022-09-06T11:33:39.880Z,77.21
2022-09-06T11:36:45.218Z,77.22
2022-09-06T11:39:14.931Z,76.75
2022-09-06T11:41:42.890Z,76.38
2022-09-06T11:44:11.020Z,75.56
2022-09-06T11:46:41.996Z,75.26
2022-09-06T11:49:29.329Z,75.05
2022-09-06T11:51:57.126Z,73.94
2022-09-06T11:54:44.226Z,75.07
2022-09-06T11:57:22.488Z,74.39
2022-09-06T12:00:02.100Z,73.89
2022-09-06T12:02:42.373Z,73.66
2022-09-06T12:05:14.476Z,73.76
2022-09-06T12:08:31.760Z,73.88
2022-09-06T12:11:06.428Z,73.31
2022-09-06T12:13:39.305Z,73.97
2022-09-06T12:16:09.366Z,73.25
2022-09-06T12:18:43.115Z,73.41
2022-09-06T12:21:36.508Z,73.63
2022-09-06T12:24:26.124Z,74.61
2022-09-06T12:27:15.975Z,74.40
2022-09-06T12:30:09.530Z,74.46
2022-09-06T12:32:46.842Z,74.08
2022-09-06T12:38:25.212Z,73.04
2022-09-06T12:40:58.431Z,73.42
2022-09-06T12:43:27.088Z,74.15
2022-09-06T12:45:54.875Z,73.98
2022-09-06T12:48:27.262Z,73.12
2022-09-06T12:51:16.147Z,73.67
2022-09-06T12:53:57.078Z,72.81
2022-09-06T12:56:26.983Z,72.77
2022-09-06T12:59:14.178Z,73.16
2022-09-06T13:01:51.146Z,72.33
2022-09-06T13:04:42.455Z,72.63
2022-09-06T13:07:16.105Z,71.85
2022-09-06T13:09:49.597Z,71.38
2022-09-06T13:12:42.453Z,70.83
2022-09-06T13:15:31.636Z,71.02
2022-09-06T13:18:38.180Z,70.35
2022-09-06T13:21:18.919Z,70.46
2022-09-06T13:23:50.933Z,70.05
2022-09-06T13:26:37.648Z,69.93
2022-09-06T13:29:17.217Z,69.55
2022-09-06T13:31:54.778Z,69.25
2022-09-06T13:34:29.682Z,69.56
2022-09-06T13:37:05.916Z,69.80
2022-09-06T13:39:42.132Z,69.92
2022-09-06T13:42:27.569Z,69.76
2022-09-06T13:45:01.283Z,69.93
2022-09-06T13:47:30.143Z,69.88
2022-09-06T13:49:57.806Z,69.60
2022-09-06T13:52:25.929Z,69.71
2022-09-06T13:54:53.562Z,69.38
2022-09-06T13:57:24.475Z,69.56
2022-09-06T13:59:52.535Z,68.73
2022-09-06T14:02:20.942Z,69.11
2022-09-06T14:04:48.718Z,68.81
2022-09-06T14:07:16.633Z,67.84
2022-09-06T14:09:44.435Z,66.80
2022-09-06T14:12:12.346Z,66.99
2022-09-06T14:14:40.245Z,67.08
2022-09-06T14:17:08.151Z,67.42
2022-09-06T14:19:35.992Z,66.72
2022-09-06T14:22:05.583Z,67.24
2022-09-06T14:24:33.589Z,67.12
2022-09-06T14:27:01.881Z,67.14
2022-09-06T14:29:29.706Z,67.57
2022-09-06T14:31:57.406Z,67.38
2022-09-06T14:34:25.751Z,67.75
2022-09-06T14:36:54.131Z,68.11
2022-09-06T14:39:22.319Z,68.55
2022-09-06T14:41:50.577Z,69.07
2022-09-06T14:44:18.241Z,69.49
2022-09-06T14:46:47.745Z,69.75
2022-09-06T14:49:15.817Z,69.61
2022-09-06T14:51:43.624Z,70.01
2022-09-06T14:54:15.728Z,70.39
2022-09-06T14:56:44.185Z,71.01
2022-09-06T14:59:12.344Z,71.39
2022-09-06T15:01:41.109Z,72.15
2022-09-06T15:04:11.112Z,72.66
2022-09-06T15:06:41.144Z,73.16
2022-09-06T15:09:11.235Z,73.45
2022-09-06T15:11:48.435Z,73.78
2022-09-06T15:14:25.888Z,74.05
2022-09-06T15:16:58.012Z,73.91
2022-09-06T15:19:28.958Z,74.38
2022-09-06T15:21:57.389Z,74.37
2022-09-06T15:24:25.804Z,74.36
2022-09-06T15:26:53.593Z,74.42
2022-09-06T15:29:21.370Z,74.52
2022-09-06T15:31:50.799Z,74.55
2022-09-06T15:34:22.062Z,74.60
2022-09-06T15:36:51.206Z,74.58
2022-09-06T15:39:19.371Z,75.02
2022-09-06T15:41:49.996Z,74.73
2022-09-06T15:44:21.033Z,74.92
2022-09-06T15:46:57.603Z,75.05
2022-09-06T15:49:32.151Z,75.19
2022-09-06T15:52:03.426Z,75.51
2022-09-06T15:54:49.641Z,75.68
2022-09-06T15:57:18.232Z,75.71
2022-09-06T15:59:46.746Z,76.42
2022-09-06T16:02:14.819Z,77.02
2022-09-06T16:04:42.702Z,77.03
2022-09-06T16:07:10.805Z,77.26
2022-09-06T16:09:38.963Z,77.43
2022-09-06T16:12:07.005Z,78.11
2022-09-06T16:14:35.634Z,77.99
2022-09-06T16:17:03.498Z,77.67
2022-09-06T16:19:31.450Z,77.93
2022-09-06T16:21:59.199Z,78.02
2022-09-06T16:24:26.964Z,78.10
2022-09-06T16:26:54.929Z,77.57
2022-09-06T16:29:22.644Z,77.86
2022-09-06T16:31:52.673Z,77.78
2022-09-06T16:34:20.314Z,77.84
2022-09-06T16:36:50.082Z,77.47
2022-09-06T16:39:17.877Z,76.96
2022-09-06T16:41:46.605Z,76.93
2022-09-06T16:44:18.435Z,76.98
2022-09-06T16:46:48.646Z,76.88
2022-09-06T16:49:19.138Z,76.80
2022-09-06T16:51:49.288Z,76.46
2022-09-06T16:54:18.846Z,76.51
2022-09-06T16:56:46.603Z,76.59
2022-09-06T16:59:17.060Z,76.68
2022-09-06T17:01:45.569Z,77.16
2022-09-06T17:04:13.988Z,77.26
2022-09-06T17:06:45.552Z,76.51
2022-09-06T17:09:21.057Z,76.52
2022-09-06T17:11:51.972Z,76.31
2022-09-06T17:14:19.707Z,75.81
2022-09-06T17:17:05.862Z,75.71
2022-09-06T17:19:40.661Z,75.60
2022-09-06T17:22:10.604Z,75.55
2022-09-06T17:24:40.688Z,75.57
2022-09-06T17:27:09.217Z,75.85
2022-09-06T17:29:37.323Z,76.55
2022-09-06T17:32:10.031Z,77.49
2022-09-06T17:34:39.912Z,78.43
2022-09-06T17:37:08.566Z,79.20
2022-09-06T17:39:37.426Z,79.61
2022-09-06T17:42:05.727Z,79.83
2022-09-06T17:44:34.851Z,80.12
2022-09-06T17:47:12.506Z,80.61
2022-09-06T17:49:42.629Z,80.76
2022-09-06T17:52:11.439Z,80.99
2022-09-06T17:54:39.307Z,81.34
2022-09-06T17:57:07.206Z,81.47
2022-09-06T17:59:35.923Z,81.59
2022-09-06T18:02:05.196Z,81.71
2022-09-06T18:04:33.368Z,81.88
2022-09-06T18:07:01.331Z,81.99
2022-09-06T18:09:29.192Z,82.30
2022-09-06T18:11:58.586Z,82.44
2022-09-06T18:14:28.570Z,82.79
2022-09-06T18:16:57.007Z,83.17
2022-09-06T18:19:27.439Z,83.46
2022-09-06T18:21:57.115Z,83.76
2022-09-06T18:24:25.027Z,83.82
2022-09-06T18:26:52.858Z,84.20
2022-09-06T18:29:21.766Z,84.68
2022-09-06T18:31:53.400Z,84.58
2022-09-06T18:34:21.931Z,84.67
2022-09-06T18:36:49.756Z,84.66
2022-09-06T18:39:19.066Z,84.71
2022-09-06T18:42:02.012Z,84.90
2022-09-06T18:44:34.390Z,84.65
2022-09-06T18:47:05.621Z,84.70
2022-09-06T18:49:33.988Z,84.78
2022-09-06T18:52:06.157Z,84.89
2022-09-06T18:54:35.070Z,85.01
2022-09-06T18:57:03.314Z,85.13
2022-09-06T18:59:31.246Z,85.30
2022-09-06T19:01:59.281Z,85.35
2022-09-06T19:04:27.419Z,85.57
2022-09-06T19:06:55.159Z,85.67
2022-09-06T19:09:23.310Z,85.63
2022-09-06T19:11:53.042Z,85.59
2022-09-06T19:14:21.680Z,85.57
2022-09-06T19:16:51.434Z,85.58
2022-09-06T19:19:19.367Z,85.70
2022-09-06T19:21:47.555Z,85.71
2022-09-06T19:24:16.179Z,85.90
2022-09-06T19:26:45.309Z,86.00
2022-09-06T19:29:17.567Z,85.94
2022-09-06T19:31:47.571Z,85.86
2022-09-06T19:34:16.791Z,85.97
2022-09-06T19:36:45.574Z,85.94
2022-09-06T19:39:16.440Z,86.04
2022-09-06T19:41:46.903Z,86.15
2022-09-06T19:44:17.452Z,85.99
2022-09-06T19:46:47.014Z,85.98
2022-09-06T19:49:19.778Z,85.86
2022-09-06T19:51:50.422Z,85.70
2022-09-06T19:54:18.485Z,85.73
2022-09-06T19:56:47.058Z,85.75
2022-09-06T19:59:18.834Z,85.65
2022-09-06T20:01:47.662Z,85.69
2022-09-06T20:04:16.173Z,85.82
2022-09-06T20:06:44.517Z,85.80
2022-09-06T20:09:13.489Z,85.67
2022-09-06T20:11:42.537Z,85.91
2022-09-06T20:14:11.727Z,85.98
2022-09-06T20:16:42.083Z,86.08
2022-09-06T20:19:13.062Z,86.00
2022-09-06T20:21:41.361Z,85.95
2022-09-06T20:24:09.469Z,85.83
2022-09-06T20:26:37.879Z,85.77
2022-09-06T20:29:06.965Z,85.81
2022-09-06T20:31:36.655Z,86.00
2022-09-06T20:34:07.073Z,86.13
2022-09-06T20:36:35.375Z,86.14
2022-09-06T20:39:04.438Z,86.22
2022-09-06T20:41:33.719Z,86.39
2022-09-06T20:44:02.269Z,86.31
2022-09-06T20:46:35.115Z,86.34
2022-09-06T20:49:04.797Z,86.49
2022-09-06T20:51:35.553Z,86.60
2022-09-06T20:54:05.250Z,86.72
2022-09-06T20:56:38.020Z,86.65
2022-09-06T20:59:09.681Z,86.70
2022-09-06T21:01:41.952Z,86.66
2022-09-06T21:04:12.859Z,86.76
2022-09-06T21:06:41.559Z,86.93
2022-09-06T21:09:13.239Z,86.91
2022-09-06T21:11:42.582Z,86.95
2022-09-06T21:14:10.609Z,86.96
2022-09-06T21:16:40.534Z,86.91
2022-09-06T21:19:11.057Z,86.87
2022-09-06T21:21:40.142Z,86.85
2022-09-06T21:24:10.000Z,86.51
2022-09-06T21:26:38.265Z,86.21
2022-09-06T21:29:06.035Z,86.20
2022-09-06T21:31:39.864Z,86.11
2022-09-06T21:34:16.897Z,86.10
2022-09-06T21:36:45.485Z,86.11
2022-09-06T21:39:13.912Z,86.17
2022-09-06T21:41:44.044Z,86.12
2022-09-06T21:44:12.797Z,86.05
2022-09-06T21:46:41.253Z,86.00
2022-09-06T21:49:12.813Z,85.98
2022-09-06T21:51:41.648Z,85.91
2022-09-06T21:54:09.721Z,85.89
2022-09-06T21:56:39.400Z,85.88
2022-09-06T21:59:07.872Z,86.08
2022-09-06T22:01:37.850Z,86.17
2022-09-06T22:04:06.911Z,86.24
2022-09-06T22:06:36.523Z,86.17
2022-09-06T22:09:13.311Z,86.16
2022-09-06T22:11:43.698Z,86.15
2022-09-06T22:14:14.494Z,86.24
2022-09-06T22:16:42.739Z,86.37
2022-09-06T22:19:12.025Z,86.35
2022-09-06T22:21:40.296Z,86.48
2022-09-06T22:24:11.106Z,86.46
2022-09-06T22:26:40.990Z,86.53
2022-09-06T22:29:11.291Z,86.41
2022-09-06T22:31:39.934Z,86.35
2022-09-06T22:34:08.283Z,86.18
2022-09-06T22:36:36.515Z,86.32
2022-09-06T22:39:04.720Z,86.38
2022-09-06T22:41:33.917Z,86.54
2022-09-06T22:44:03.011Z,86.48
2022-09-06T22:46:31.519Z,86.48
2022-09-06T22:49:00.664Z,86.65
2022-09-06T22:51:28.440Z,86.62
2022-09-06T22:53:56.247Z,86.68
2022-09-06T22:56:24.512Z,86.34
2022-09-06T22:58:52.357Z,86.24
2022-09-06T23:01:20.235Z,86.52
2022-09-06T23:03:49.274Z,86.43
2022-09-06T23:06:17.181Z,86.51
2022-09-06T23:08:45.478Z,86.35
2022-09-06T23:11:16.738Z,86.45
2022-09-06T23:13:46.113Z,86.45
2022-09-06T23:16:19.377Z,86.50
2022-09-06T23:18:48.417Z,86.74
2022-09-06T23:21:20.180Z,86.68
2022-09-06T23:23:50.794Z,86.71
2022-09-06T23:26:25.793Z,86.55
2022-09-06T23:28:57.069Z,86.50
2022-09-06T23:31:28.537Z,86.49
2022-09-06T23:33:58.922Z,86.54
2022-09-06T23:36:27.695Z,86.57
2022-09-06T23:38:56.195Z,86.70
2022-09-06T23:41:24.938Z,86.75
2022-09-06T23:43:52.825Z,86.78
2022-09-06T23:46:20.640Z,86.91
2022-09-06T23:48:48.429Z,86.72
2022-09-06T23:51:16.239Z,86.79
2022-09-06T23:53:45.203Z,86.79
2022-09-06T23:56:12.959Z,86.80
2022-09-06T23:58:40.781Z,86.83
